Terminal Aerodrome Forecast
Issued by NWS

Home | Current Version | Previous Version | Graphics & Text | Print | Product List | Glossary On
Versions: 1 2 3 4 5 6 7 8 9 10 11 12 13 14
000
FTUS43 KBIS 012333
TAFDIK
TAF
KDIK 012333Z 0200/0224 33006KT P6SM SKC
     FM020300 27005KT P6SM SKC
     FM021200 28009KT P6SM VCSH BKN130
     FM021600 34011G20KT P6SM SCT120
     FM022200 01011KT P6SM SCT150=

USA.gov is the U.S. government's official web portal to all federal, state and local government web resources and services.